createdAt,value
2023-04-14T00:01:47.489Z,1.47
2023-04-14T00:04:15.756Z,1.97
2023-04-14T00:06:45.249Z,1.33
2023-04-14T00:09:13.180Z,1.40
2023-04-14T00:11:41.167Z,1.50
2023-04-14T00:14:09.111Z,1.50
2023-04-14T00:16:39.435Z,2.10
2023-04-14T00:19:07.495Z,1.70
2023-04-14T00:21:35.483Z,1.10
2023-04-14T00:24:04.901Z,1.30
2023-04-14T00:26:33.462Z,1.80
2023-04-14T00:29:01.770Z,1.50
2023-04-14T00:31:30.022Z,2.50
2023-04-14T00:33:58.037Z,1.47
2023-04-14T00:36:26.008Z,1.53
2023-04-14T00:38:54.180Z,1.77
2023-04-14T00:41:24.719Z,3.30
2023-04-14T00:43:54.482Z,1.97
2023-04-14T00:46:23.157Z,1.17
2023-04-14T00:48:53.207Z,1.93
2023-04-14T00:51:21.170Z,1.80
2023-04-14T00:53:50.316Z,2.13
2023-04-14T00:56:18.555Z,1.87
2023-04-14T00:58:48.029Z,2.20
2023-04-14T01:01:16.922Z,1.93
2023-04-14T01:03:45.684Z,1.90
2023-04-14T01:06:13.813Z,1.70
2023-04-14T01:08:41.940Z,2.13
2023-04-14T01:11:29.050Z,2.80
2023-04-14T01:14:08.682Z,1.50
2023-04-14T01:16:39.803Z,1.67
2023-04-14T01:19:23.539Z,1.83
2023-04-14T01:21:55.476Z,1.90
2023-04-14T01:24:38.027Z,1.57
2023-04-14T01:27:24.731Z,1.73
2023-04-14T01:30:10.325Z,1.87
2023-04-14T01:32:45.860Z,1.43
2023-04-14T01:35:20.649Z,1.50
2023-04-14T01:37:53.189Z,1.70
2023-04-14T01:40:23.836Z,1.43
2023-04-14T01:43:00.369Z,1.47
2023-04-14T01:45:39.099Z,1.83
2023-04-14T01:48:10.067Z,2.80
2023-04-14T01:50:39.227Z,1.50
2023-04-14T01:53:10.035Z,1.20
2023-04-14T01:55:39.655Z,1.27
2023-04-14T01:58:08.965Z,1.50
2023-04-14T02:00:38.936Z,1.80
2023-04-14T02:03:09.907Z,2.00
2023-04-14T02:05:40.648Z,1.90
2023-04-14T02:08:12.538Z,1.63
2023-04-14T02:10:44.485Z,1.83
2023-04-14T02:13:13.885Z,1.70
2023-04-14T02:15:42.862Z,1.20
2023-04-14T02:18:13.363Z,1.40
2023-04-14T02:20:44.925Z,1.83
2023-04-14T02:23:13.225Z,1.73
2023-04-14T02:26:01.486Z,1.77
2023-04-14T02:28:33.185Z,1.43
2023-04-14T02:31:06.424Z,1.27
2023-04-14T02:33:39.387Z,1.70
2023-04-14T02:36:14.237Z,1.77
2023-04-14T02:38:47.763Z,2.00
2023-04-14T02:41:23.331Z,1.90
2023-04-14T02:44:00.742Z,1.43
2023-04-14T02:46:33.007Z,1.37
2023-04-14T02:49:06.128Z,2.10
2023-04-14T02:51:36.755Z,1.77
2023-04-14T02:54:06.242Z,2.50
2023-04-14T02:56:46.817Z,1.47
2023-04-14T02:59:15.220Z,2.37
2023-04-14T03:02:06.813Z,1.60
2023-04-14T03:04:41.114Z,1.87
2023-04-14T03:07:18.578Z,2.43
2023-04-14T03:09:49.290Z,1.77
2023-04-14T03:12:18.067Z,2.30
2023-04-14T03:14:46.446Z,1.60
2023-04-14T03:17:18.088Z,1.23
2023-04-14T03:19:49.117Z,1.27
2023-04-14T03:22:17.856Z,1.50
2023-04-14T03:24:46.529Z,1.67
2023-04-14T03:27:18.397Z,2.30
2023-04-14T03:29:50.853Z,2.00
2023-04-14T03:32:20.133Z,1.40
2023-04-14T03:34:53.857Z,2.00
2023-04-14T03:37:25.984Z,1.23
2023-04-14T03:39:55.699Z,1.60
2023-04-14T03:42:26.000Z,2.10
2023-04-14T03:44:56.808Z,1.60
2023-04-14T03:47:26.946Z,1.73
2023-04-14T03:50:01.211Z,1.50
2023-04-14T03:52:35.893Z,1.50
2023-04-14T03:55:07.181Z,1.60
2023-04-14T03:57:38.676Z,1.97
2023-04-14T04:00:09.453Z,1.63
2023-04-14T04:02:47.867Z,1.33
2023-04-14T04:05:18.066Z,2.20
2023-04-14T04:07:47.445Z,1.30
2023-04-14T04:10:16.566Z,1.93
2023-04-14T04:12:45.206Z,1.77
2023-04-14T04:15:13.826Z,1.70
2023-04-14T04:17:44.304Z,1.87
2023-04-14T04:20:15.453Z,1.17
2023-04-14T04:22:49.704Z,1.90
2023-04-14T04:25:17.977Z,1.20
2023-04-14T04:27:53.351Z,1.80
2023-04-14T04:30:23.600Z,1.47
2023-04-14T04:32:52.443Z,1.13
2023-04-14T04:35:21.869Z,2.23
2023-04-14T04:37:51.506Z,1.67
2023-04-14T04:40:19.757Z,1.70
2023-04-14T04:42:49.935Z,2.10
2023-04-14T04:45:42.919Z,2.30
2023-04-14T04:48:11.120Z,1.87
2023-04-14T04:50:39.189Z,1.63
2023-04-14T04:53:08.557Z,1.43
2023-04-14T04:55:36.781Z,1.07
2023-04-14T04:58:04.792Z,1.70
2023-04-14T05:00:32.828Z,1.20
2023-04-14T05:03:00.918Z,1.30
2023-04-14T05:05:29.005Z,2.17
2023-04-14T05:07:56.976Z,1.60
2023-04-14T05:10:26.480Z,1.30
2023-04-14T05:12:54.453Z,2.23
2023-04-14T05:15:22.428Z,1.73
2023-04-14T05:17:50.661Z,2.43
2023-04-14T05:20:18.863Z,1.87
2023-04-14T05:22:46.893Z,1.90
2023-04-14T05:25:14.855Z,2.20
2023-04-14T05:27:44.157Z,1.80
2023-04-14T05:30:13.302Z,1.80
2023-04-14T05:32:41.312Z,1.40
2023-04-14T05:35:09.990Z,1.53
2023-04-14T05:37:38.035Z,1.50
2023-04-14T05:40:07.249Z,1.40
2023-04-14T05:42:35.448Z,1.90
2023-04-14T05:45:07.077Z,1.40
2023-04-14T05:47:35.044Z,2.00
2023-04-14T05:50:03.831Z,1.87
2023-04-14T05:52:31.859Z,1.50
2023-04-14T05:54:59.806Z,1.90
2023-04-14T05:57:27.751Z,1.50
2023-04-14T05:59:57.034Z,1.70
2023-04-14T06:02:27.708Z,1.60
2023-04-14T06:04:56.355Z,1.23
2023-04-14T06:07:24.374Z,1.60
2023-04-14T06:09:52.362Z,1.90
2023-04-14T06:12:20.568Z,1.80
2023-04-14T06:14:48.619Z,1.37
2023-04-14T06:17:16.589Z,1.80
2023-04-14T06:19:46.880Z,1.73
2023-04-14T06:22:16.873Z,1.53
2023-04-14T06:24:44.889Z,2.07
2023-04-14T06:27:12.852Z,2.47
2023-04-14T06:29:40.829Z,1.40
2023-04-14T06:32:08.888Z,1.30
2023-04-14T06:34:36.839Z,1.67
2023-04-14T06:37:06.725Z,1.50
2023-04-14T06:39:34.753Z,1.37
2023-04-14T06:42:02.740Z,2.07
2023-04-14T06:44:30.693Z,1.60
2023-04-14T06:46:59.190Z,2.50
2023-04-14T06:49:27.153Z,1.90
2023-04-14T06:51:55.126Z,2.40
2023-04-14T06:54:24.491Z,1.80
2023-04-14T06:56:52.459Z,1.50
2023-04-14T06:59:23.054Z,1.47
2023-04-14T07:01:51.141Z,1.70
2023-04-14T07:04:19.542Z,1.50
2023-04-14T07:06:47.509Z,1.87
2023-04-14T07:09:15.966Z,1.73
2023-04-14T07:11:46.153Z,1.40
2023-04-14T07:14:14.110Z,2.33
2023-04-14T07:16:42.040Z,2.10
2023-04-14T07:19:09.955Z,1.87
2023-04-14T07:21:38.137Z,1.53
2023-04-14T07:24:06.379Z,2.07
2023-04-14T07:26:34.338Z,1.47
2023-04-14T07:29:04.044Z,2.27
2023-04-14T07:31:34.073Z,1.50
2023-04-14T07:34:02.458Z,1.53
2023-04-14T07:36:31.929Z,1.80
2023-04-14T07:38:59.937Z,1.63
2023-04-14T07:41:28.967Z,1.87
2023-04-14T07:43:59.328Z,1.73
2023-04-14T07:46:28.987Z,2.07
2023-04-14T07:48:57.019Z,1.87
2023-04-14T07:51:25.001Z,1.60
2023-04-14T07:53:53.134Z,1.40
2023-04-14T07:56:22.303Z,1.53
2023-04-14T07:58:50.297Z,1.70
2023-04-14T08:01:18.342Z,1.67
2023-04-14T08:03:47.851Z,2.37
2023-04-14T08:06:16.826Z,1.57
2023-04-14T08:08:44.840Z,1.33
2023-04-14T08:11:12.807Z,2.03
2023-04-14T08:13:40.802Z,2.00
2023-04-14T08:16:09.364Z,1.60
2023-04-14T08:18:37.982Z,1.70
2023-04-14T08:21:07.544Z,1.70
2023-04-14T08:23:35.786Z,1.73
2023-04-14T08:26:03.995Z,1.60
2023-04-14T08:28:32.106Z,2.10
2023-04-14T08:31:00.204Z,1.83
2023-04-14T08:33:28.269Z,1.50
2023-04-14T08:36:00.350Z,1.77
2023-04-14T08:38:30.353Z,2.30
2023-04-14T08:41:01.945Z,2.57
2023-04-14T08:43:30.417Z,1.70
2023-04-14T08:46:01.067Z,1.50
2023-04-14T08:48:32.056Z,1.43
2023-04-14T08:51:07.817Z,2.00
2023-04-14T08:53:42.810Z,1.60
2023-04-14T08:56:13.670Z,1.60
2023-04-14T08:58:42.638Z,1.37
2023-04-14T09:01:11.241Z,2.03
2023-04-14T09:03:39.541Z,1.67
2023-04-14T09:06:08.094Z,1.10
2023-04-14T09:08:37.673Z,2.10
2023-04-14T09:11:06.052Z,1.30
2023-04-14T09:13:34.973Z,1.33
2023-04-14T09:16:03.480Z,1.30
2023-04-14T09:18:34.736Z,1.43
2023-04-14T09:21:49.552Z,1.47
2023-04-14T09:23:54.313Z,1.10
2023-04-14T09:26:22.420Z,1.20
2023-04-14T09:28:50.494Z,1.53
2023-04-14T09:31:19.613Z,1.40
2023-04-14T09:33:50.462Z,1.30
2023-04-14T09:36:20.586Z,1.87
2023-04-14T09:38:49.856Z,1.53
2023-04-14T09:41:21.383Z,1.67
2023-04-14T09:43:49.787Z,1.70
2023-04-14T09:46:17.945Z,1.50
2023-04-14T09:48:53.849Z,1.70
2023-04-14T09:51:28.116Z,1.27
2023-04-14T09:53:56.408Z,1.20
2023-04-14T09:56:29.064Z,1.80
2023-04-14T09:59:00.317Z,1.90
2023-04-14T10:01:32.035Z,1.50
2023-04-14T10:04:01.250Z,1.40
2023-04-14T10:06:31.167Z,2.00
2023-04-14T10:08:59.939Z,1.30
2023-04-14T10:11:32.264Z,1.40
2023-04-14T10:14:02.697Z,1.40
2023-04-14T10:16:31.489Z,1.80
2023-04-14T10:19:00.047Z,1.57
2023-04-14T10:21:28.628Z,1.47
2023-04-14T10:23:57.999Z,1.50
2023-04-14T10:26:28.266Z,1.50
2023-04-14T10:28:58.030Z,2.27
2023-04-14T10:31:29.996Z,1.50
2023-04-14T10:33:58.242Z,1.73
2023-04-14T10:36:27.813Z,1.70
2023-04-14T10:39:02.046Z,1.63
2023-04-14T10:41:45.378Z,2.20
2023-04-14T10:44:25.445Z,1.73
2023-04-14T10:46:54.206Z,1.73
2023-04-14T10:49:31.081Z,1.83
2023-04-14T10:52:01.029Z,2.20
2023-04-14T10:54:29.051Z,2.20
2023-04-14T10:57:14.337Z,1.83
2023-04-14T10:59:44.173Z,1.33
2023-04-14T11:02:26.112Z,1.53
2023-04-14T11:05:02.280Z,1.50
2023-04-14T11:07:31.198Z,1.70
2023-04-14T11:10:34.683Z,1.80
2023-04-14T11:13:04.487Z,1.73
2023-04-14T11:15:50.936Z,1.77
2023-04-14T11:18:31.975Z,1.60
2023-04-14T11:21:05.385Z,1.50
2023-04-14T11:23:34.144Z,1.30
2023-04-14T11:26:02.556Z,1.77
2023-04-14T11:28:31.906Z,1.90
2023-04-14T11:31:02.091Z,1.77
2023-04-14T11:33:31.214Z,1.90
2023-04-14T11:35:59.824Z,1.60
2023-04-14T11:38:28.379Z,1.63
2023-04-14T11:40:57.241Z,2.40
2023-04-14T11:43:25.975Z,1.80
2023-04-14T11:45:54.719Z,2.40
2023-04-14T11:48:24.024Z,1.97
2023-04-14T11:50:52.199Z,2.27
2023-04-14T11:53:21.062Z,1.70
2023-04-14T11:55:50.118Z,1.93
2023-04-14T11:58:23.735Z,1.80
2023-04-14T12:00:54.996Z,2.00
2023-04-14T12:03:27.885Z,1.57
2023-04-14T12:05:58.365Z,1.73
2023-04-14T12:08:27.047Z,1.70
2023-04-14T12:10:56.273Z,1.90
2023-04-14T12:13:26.339Z,1.87
2023-04-14T12:15:55.195Z,1.50
2023-04-14T12:18:24.789Z,1.77
2023-04-14T12:20:54.352Z,1.37
2023-04-14T12:23:23.442Z,1.30
2023-04-14T12:25:52.211Z,1.10
2023-04-14T12:28:20.400Z,1.43
2023-04-14T12:30:53.083Z,1.60
2023-04-14T12:33:27.236Z,1.10
2023-04-14T12:36:00.912Z,1.57
2023-04-14T12:38:29.686Z,1.60
2023-04-14T12:40:57.860Z,1.93
2023-04-14T12:43:30.007Z,1.40
2023-04-14T12:45:58.986Z,1.77
2023-04-14T12:48:43.575Z,2.10
2023-04-14T12:51:13.278Z,1.10
2023-04-14T12:53:43.940Z,1.10
2023-04-14T12:56:13.392Z,1.50
2023-04-14T12:58:42.815Z,1.20
2023-04-14T13:01:12.556Z,1.47
2023-04-14T13:03:44.852Z,1.13
2023-04-14T13:06:16.197Z,0.90
2023-04-14T13:08:45.541Z,1.00
2023-04-14T13:11:14.111Z,1.83
2023-04-14T13:13:42.372Z,1.00
2023-04-14T13:16:13.906Z,1.30
2023-04-14T13:18:45.590Z,1.27
2023-04-14T13:21:13.807Z,1.00
2023-04-14T13:23:42.053Z,1.10
2023-04-14T13:26:10.251Z,1.00
2023-04-14T13:28:38.256Z,1.27
2023-04-14T13:31:07.189Z,1.17
2023-04-14T13:33:35.565Z,1.30
2023-04-14T13:36:05.287Z,1.30
2023-04-14T13:38:33.517Z,0.83
2023-04-14T13:41:01.474Z,1.17
2023-04-14T13:43:29.918Z,1.43
2023-04-14T13:45:58.971Z,1.17
2023-04-14T13:48:27.253Z,1.00
2023-04-14T13:50:55.810Z,1.33
2023-04-14T13:53:25.501Z,0.80
2023-04-14T13:55:53.481Z,1.23
2023-04-14T13:58:25.409Z,1.00
2023-04-14T14:00:53.414Z,1.20
2023-04-14T14:03:21.676Z,1.57
2023-04-14T14:05:49.826Z,0.80
2023-04-14T14:08:17.875Z,1.80
2023-04-14T14:10:47.206Z,0.80
2023-04-14T14:13:16.541Z,1.20
2023-04-14T14:15:46.153Z,1.67
2023-04-14T14:18:14.434Z,1.10
2023-04-14T14:20:42.404Z,1.20
2023-04-14T14:23:12.037Z,1.30
2023-04-14T14:25:40.787Z,1.10
2023-04-14T14:28:10.095Z,1.10
2023-04-14T14:30:38.143Z,1.53
2023-04-14T14:33:06.288Z,1.17
2023-04-14T14:35:34.294Z,1.20
2023-04-14T14:38:02.214Z,0.90
2023-04-14T14:40:30.891Z,1.47
2023-04-14T14:42:59.730Z,1.30
2023-04-14T14:45:30.824Z,1.00
2023-04-14T14:48:00.047Z,1.10
2023-04-14T14:50:28.095Z,1.00
2023-04-14T14:52:56.807Z,1.20
2023-04-14T14:55:24.920Z,0.90
2023-04-14T14:57:52.959Z,1.13
2023-04-14T15:00:21.257Z,1.10
2023-04-14T15:02:50.782Z,1.10
2023-04-14T15:05:19.131Z,1.03
2023-04-14T15:07:47.073Z,1.17
2023-04-14T15:10:15.996Z,1.20
2023-04-14T15:12:43.974Z,1.23
2023-04-14T15:15:12.898Z,0.97
2023-04-14T15:17:40.993Z,1.47
2023-04-14T15:20:11.655Z,0.90
2023-04-14T15:22:39.630Z,0.90
2023-04-14T15:25:09.133Z,1.10
2023-04-14T15:27:37.403Z,1.37
2023-04-14T15:30:06.292Z,0.83
2023-04-14T15:32:34.327Z,0.93
2023-04-14T15:35:02.680Z,1.03
2023-04-14T15:37:32.146Z,1.30
2023-04-14T15:40:00.333Z,1.27
2023-04-14T15:42:28.566Z,0.93
2023-04-14T15:44:56.536Z,1.83
2023-04-14T15:47:24.610Z,1.10
2023-04-14T15:50:09.538Z,0.90
2023-04-14T15:52:39.827Z,1.00
2023-04-14T15:55:09.959Z,1.50
2023-04-14T15:57:37.960Z,1.00
2023-04-14T16:00:07.975Z,1.30
2023-04-14T16:02:43.105Z,1.03
2023-04-14T16:05:11.894Z,1.07
2023-04-14T16:07:43.620Z,0.80
2023-04-14T16:10:12.051Z,1.10
2023-04-14T16:12:40.681Z,1.23
2023-04-14T16:15:09.413Z,0.90
2023-04-14T16:17:37.442Z,1.30
2023-04-14T16:20:06.134Z,0.97
2023-04-14T16:22:34.200Z,1.10
2023-04-14T16:25:04.362Z,1.30
2023-04-14T16:27:32.323Z,1.77
2023-04-14T16:30:00.478Z,1.00
2023-04-14T16:32:32.561Z,0.90
2023-04-14T16:35:01.062Z,0.90
2023-04-14T16:37:29.142Z,1.60
2023-04-14T16:39:57.542Z,1.53
2023-04-14T16:42:27.436Z,1.13
2023-04-14T16:44:56.473Z,2.27
2023-04-14T16:47:24.564Z,1.10
2023-04-14T16:49:52.947Z,1.87
2023-04-14T16:52:21.224Z,1.13
2023-04-14T16:54:49.226Z,1.20
2023-04-14T16:57:17.394Z,1.00
2023-04-14T16:59:48.094Z,0.90
2023-04-14T17:02:16.375Z,0.70
2023-04-14T17:04:44.618Z,0.97
2023-04-14T17:07:12.667Z,0.90
2023-04-14T17:09:40.855Z,1.23
2023-04-14T17:12:08.824Z,0.90
2023-04-14T17:14:37.320Z,1.00
2023-04-14T17:17:07.207Z,1.40
2023-04-14T17:19:35.193Z,0.90
2023-04-14T17:22:03.582Z,1.10
2023-04-14T17:24:31.718Z,1.37
2023-04-14T17:27:00.472Z,0.93
2023-04-14T17:29:28.976Z,1.10
2023-04-14T17:31:57.062Z,1.00
2023-04-14T17:34:27.073Z,1.10
2023-04-14T17:36:55.859Z,0.90
2023-04-14T17:39:26.770Z,0.83
2023-04-14T17:41:56.014Z,1.07
2023-04-14T17:44:31.204Z,1.10
2023-04-14T17:47:00.893Z,0.80
2023-04-14T17:49:30.311Z,1.10
2023-04-14T17:51:59.080Z,0.90
2023-04-14T17:54:27.394Z,1.23
2023-04-14T17:56:56.665Z,1.00
2023-04-14T17:59:24.736Z,1.00
2023-04-14T18:01:52.727Z,1.93
2023-04-14T18:04:21.297Z,1.10
2023-04-14T18:06:51.063Z,1.30
2023-04-14T18:09:19.022Z,1.53
2023-04-14T18:11:47.026Z,1.57
2023-04-14T18:14:15.335Z,1.37
2023-04-14T18:16:43.355Z,1.80
2023-04-14T18:19:11.375Z,2.37
2023-04-14T18:21:39.346Z,2.30
2023-04-14T18:26:41.168Z,2.10
2023-04-14T18:29:09.243Z,1.90
2023-04-14T18:31:37.532Z,2.20
2023-04-14T18:34:06.786Z,1.53
2023-04-14T18:36:34.805Z,2.00
2023-04-14T18:39:03.078Z,1.83
2023-04-14T18:41:32.474Z,1.97
2023-04-14T18:44:00.441Z,2.07
2023-04-14T18:46:28.517Z,1.83
2023-04-14T18:48:56.601Z,2.23
2023-04-14T18:51:25.922Z,1.30
2023-04-14T18:53:54.314Z,1.20
2023-04-14T18:56:22.396Z,2.00
2023-04-14T18:58:51.753Z,1.50
2023-04-14T19:01:19.909Z,1.80
2023-04-14T19:03:47.869Z,1.57
2023-04-14T19:06:15.882Z,1.50
2023-04-14T19:08:43.852Z,1.53
2023-04-14T19:11:12.172Z,1.83
2023-04-14T19:13:41.770Z,2.60
2023-04-14T19:16:12.447Z,1.50
2023-04-14T19:18:40.889Z,1.60
2023-04-14T19:21:09.285Z,1.73
2023-04-14T19:23:38.156Z,1.60
2023-04-14T19:26:08.062Z,1.10
2023-04-14T19:28:39.606Z,1.40
2023-04-14T19:31:07.915Z,1.60
2023-04-14T19:33:37.466Z,1.40
2023-04-14T19:36:12.613Z,2.50
2023-04-14T19:38:40.601Z,1.70
2023-04-14T19:41:08.745Z,1.80
2023-04-14T19:43:37.229Z,1.30
2023-04-14T19:46:05.569Z,1.53
2023-04-14T19:48:33.992Z,1.73
2023-04-14T19:51:04.077Z,1.70
2023-04-14T19:53:32.081Z,2.00
2023-04-14T19:56:00.226Z,1.80
2023-04-14T19:58:30.420Z,1.70
2023-04-14T20:00:58.715Z,1.70
2023-04-14T20:03:28.166Z,2.37
2023-04-14T20:05:57.801Z,1.77
2023-04-14T20:08:27.621Z,1.77
2023-04-14T20:10:56.413Z,1.90
2023-04-14T20:13:27.621Z,2.30
2023-04-14T20:15:56.215Z,1.50
2023-04-14T20:18:25.995Z,1.90
2023-04-14T20:20:54.700Z,1.60
2023-04-14T20:23:22.782Z,1.60
2023-04-14T20:25:52.863Z,1.90
2023-04-14T20:28:23.017Z,1.60
2023-04-14T20:30:52.554Z,2.53
2023-04-14T20:33:22.100Z,1.80
2023-04-14T20:35:51.531Z,1.70
2023-04-14T20:38:20.320Z,1.40
2023-04-14T20:40:48.340Z,1.80
2023-04-14T20:43:17.653Z,1.70
2023-04-14T20:45:46.004Z,2.20
2023-04-14T20:48:13.988Z,1.93
2023-04-14T20:50:44.228Z,2.13
2023-04-14T20:53:12.307Z,2.20
2023-04-14T20:55:41.108Z,2.23
2023-04-14T20:58:09.165Z,1.80
2023-04-14T21:00:38.472Z,1.90
2023-04-14T21:03:06.961Z,1.63
2023-04-14T21:05:35.528Z,1.40
2023-04-14T21:08:03.686Z,1.87
2023-04-14T21:10:31.636Z,2.10
2023-04-14T21:15:25.125Z,1.97
2023-04-14T21:15:55.595Z,2.03
2023-04-14T21:18:24.992Z,1.83
2023-04-14T21:20:52.941Z,1.93
2023-04-14T21:23:21.224Z,1.83
2023-04-14T21:25:49.324Z,1.90
2023-04-14T21:28:18.055Z,2.17
2023-04-14T21:30:46.096Z,2.20
2023-04-14T21:33:15.457Z,2.40
2023-04-14T21:35:43.493Z,3.30
2023-04-14T21:38:11.437Z,5.70
2023-04-14T21:40:39.512Z,2.13
2023-04-14T21:43:07.496Z,2.30
2023-04-14T21:45:35.877Z,2.20
2023-04-14T21:48:04.117Z,2.10
2023-04-14T21:50:34.561Z,2.60
2023-04-14T21:53:02.791Z,2.60
2023-04-14T21:55:31.623Z,2.00
2023-04-14T21:58:00.310Z,2.73
2023-04-14T22:00:28.412Z,2.30
2023-04-14T22:02:56.515Z,3.00
2023-04-14T22:05:24.664Z,2.30
2023-04-14T22:07:55.042Z,2.23
2023-04-14T22:10:23.464Z,2.83
2023-04-14T22:12:51.931Z,2.70
2023-04-14T22:15:20.124Z,2.30
2023-04-14T22:17:48.108Z,2.90
2023-04-14T22:20:16.504Z,3.93
2023-04-14T22:22:44.562Z,3.20
2023-04-14T22:25:14.255Z,3.40
2023-04-14T22:27:42.216Z,3.70
2023-04-14T22:30:11.599Z,3.67
2023-04-14T22:32:39.638Z,3.70
2023-04-14T22:35:08.372Z,3.30
2023-04-14T22:37:36.510Z,2.90
2023-04-14T22:40:04.900Z,3.30
2023-04-14T22:42:34.207Z,3.20
2023-04-14T22:45:02.347Z,3.30
2023-04-14T22:47:30.405Z,3.40
2023-04-14T22:49:58.426Z,8.03
2023-04-14T22:52:28.604Z,9.27
2023-04-14T22:54:56.705Z,7.70
2023-04-14T22:57:24.721Z,6.70
2023-04-14T22:59:54.061Z,6.20
2023-04-14T23:02:22.434Z,5.57
2023-04-14T23:04:50.662Z,5.80
2023-04-14T23:07:18.608Z,4.50
2023-04-14T23:09:46.568Z,4.47
2023-04-14T23:12:14.560Z,3.73
2023-04-14T23:14:42.499Z,3.37
2023-04-14T23:17:12.433Z,3.93
2023-04-14T23:19:40.364Z,5.70
2023-04-14T23:22:08.291Z,7.73
2023-04-14T23:24:36.283Z,5.00
2023-04-14T23:27:04.396Z,3.00
2023-04-14T23:29:32.329Z,3.23
2023-04-14T23:32:00.284Z,3.70
2023-04-14T23:34:29.758Z,2.87
2023-04-14T23:36:57.748Z,3.23
2023-04-14T23:39:25.678Z,2.60
2023-04-14T23:41:54.365Z,3.53
2023-04-14T23:44:22.384Z,4.77
2023-04-14T23:46:51.031Z,6.40
2023-04-14T23:49:23.175Z,7.33
2023-04-14T23:51:53.906Z,7.83
2023-04-14T23:54:21.870Z,8.47
2023-04-14T23:56:49.890Z,8.40
2023-04-14T23:59:17.851Z,8.70
